createdAt,value
2018-06-12T00:00:30.221Z,977.37
2018-06-12T00:01:30.212Z,977.39
2018-06-12T00:02:30.159Z,977.36
2018-06-12T00:03:30.130Z,977.36
2018-06-12T00:04:30.095Z,977.35
2018-06-12T00:05:30.053Z,977.40
2018-06-12T00:06:30.028Z,977.36
2018-06-12T00:07:29.998Z,977.34
2018-06-12T00:08:29.964Z,977.35
2018-06-12T00:09:29.935Z,977.38
2018-06-12T00:10:29.977Z,977.36
2018-06-12T00:11:29.860Z,977.36
2018-06-12T00:12:29.834Z,977.36
2018-06-12T00:13:29.780Z,977.38
2018-06-12T00:14:29.803Z,977.40
2018-06-12T00:15:29.759Z,977.40
2018-06-12T00:16:29.732Z,977.43
2018-06-12T00:17:29.662Z,977.44
2018-06-12T00:18:29.697Z,977.43
2018-06-12T00:19:29.611Z,977.44
2018-06-12T00:20:29.552Z,977.43
2018-06-12T00:21:29.526Z,977.42
2018-06-12T00:22:29.600Z,977.40
2018-06-12T00:23:29.506Z,977.41
2018-06-12T00:24:29.476Z,977.43
2018-06-12T00:25:29.413Z,977.44
2018-06-12T00:26:29.385Z,977.38
2018-06-12T00:27:29.367Z,977.38
2018-06-12T00:28:29.292Z,977.37
2018-06-12T00:29:29.262Z,977.39
2018-06-12T00:30:29.264Z,977.39
2018-06-12T00:31:29.194Z,977.39
2018-06-12T00:32:57.007Z,977.40
2018-06-12T00:33:29.133Z,977.40
2018-06-12T00:34:29.092Z,977.41
2018-06-12T00:35:29.067Z,977.40
2018-06-12T00:36:29.034Z,977.40
2018-06-12T00:37:29.005Z,977.39
2018-06-12T00:38:28.998Z,977.43
2018-06-12T00:39:28.919Z,977.47
2018-06-12T00:40:28.918Z,977.50
2018-06-12T00:41:28.874Z,977.50
2018-06-12T00:42:28.844Z,977.50
2018-06-12T00:45:01.593Z,977.50
2018-06-12T00:46:00.999Z,977.52
2018-06-12T00:47:54.164Z,977.56
2018-06-12T00:48:54.110Z,977.52
2018-06-12T00:50:47.693Z,977.51
2018-06-12T00:51:47.653Z,977.52
2018-06-12T00:55:13.257Z,977.47
2018-06-12T00:56:13.135Z,977.49
2018-06-12T00:58:05.835Z,977.48
2018-06-12T00:59:05.755Z,977.47
2018-06-12T01:00:58.773Z,977.47
2018-06-12T01:01:58.735Z,977.47
2018-06-12T01:03:52.369Z,977.50
2018-06-12T01:04:51.403Z,977.49
2018-06-12T01:06:44.888Z,977.46
2018-06-12T01:07:44.484Z,977.48
2018-06-12T01:09:38.017Z,977.45
2018-06-12T01:10:37.610Z,977.46
2018-06-12T01:12:31.607Z,977.48
2018-06-12T01:13:31.124Z,977.48
2018-06-12T01:15:24.602Z,977.48
2018-06-12T01:16:24.590Z,977.45
2018-06-12T01:18:17.625Z,977.47
2018-06-12T01:19:17.221Z,977.45
2018-06-12T01:21:10.848Z,977.48
2018-06-12T01:22:10.275Z,977.44
2018-06-12T01:24:04.525Z,977.41
2018-06-12T01:25:03.759Z,977.45
2018-06-12T01:26:56.864Z,977.43
2018-06-12T01:27:56.468Z,977.42
2018-06-12T01:29:50.372Z,977.47
2018-06-12T01:30:49.485Z,977.41
2018-06-12T01:32:43.499Z,977.44
2018-06-12T01:33:43.415Z,977.44
2018-06-12T01:35:36.550Z,977.45
2018-06-12T01:36:36.099Z,977.47
2018-06-12T01:38:29.625Z,977.49
2018-06-12T01:39:29.567Z,977.42
2018-06-12T01:41:24.199Z,977.50
2018-06-12T01:42:23.783Z,977.45
2018-06-12T01:44:17.210Z,977.46
2018-06-12T01:45:16.783Z,977.49
2018-06-12T01:47:10.835Z,977.46
2018-06-12T01:48:10.357Z,977.46
2018-06-12T01:50:05.350Z,977.48
2018-06-12T01:51:05.602Z,977.44
2018-06-12T01:52:58.377Z,977.49
2018-06-12T01:53:57.940Z,977.46
2018-06-12T01:55:51.945Z,977.50
2018-06-12T01:56:51.486Z,977.50
2018-06-12T01:58:46.553Z,977.53
2018-06-12T01:59:47.508Z,977.51
2018-06-12T02:01:40.167Z,977.53
2018-06-12T02:02:39.688Z,977.56
2018-06-12T02:04:34.574Z,977.55
2018-06-12T02:05:34.509Z,977.61
2018-06-12T02:07:27.652Z,977.61
2018-06-12T02:08:27.285Z,977.60
2018-06-12T02:10:21.213Z,977.61
2018-06-12T02:11:20.260Z,977.62
2018-06-12T02:13:14.276Z,977.59
2018-06-12T02:14:13.360Z,977.56
2018-06-12T02:16:07.334Z,977.56
2018-06-12T02:17:07.203Z,977.54
2018-06-12T02:19:01.868Z,977.54
2018-06-12T02:20:01.415Z,977.56
2018-06-12T02:21:55.907Z,977.57
2018-06-12T02:22:54.925Z,977.60
2018-06-12T02:24:49.985Z,977.62
2018-06-12T02:25:49.936Z,977.61
2018-06-12T02:27:43.018Z,977.61
2018-06-12T02:28:42.616Z,977.58
2018-06-12T02:30:36.665Z,977.58
2018-06-12T02:31:36.543Z,977.60
2018-06-12T02:33:29.669Z,977.60
2018-06-12T02:34:28.708Z,977.57
2018-06-12T02:36:22.699Z,977.57
2018-06-12T02:37:22.683Z,977.58
2018-06-12T02:39:15.733Z,977.55
2018-06-12T02:40:14.893Z,977.56
2018-06-12T02:42:08.347Z,977.56
2018-06-12T02:43:07.905Z,977.61
2018-06-12T02:45:01.410Z,977.60
2018-06-12T02:46:00.881Z,977.60
2018-06-12T02:47:54.967Z,977.61
2018-06-12T02:48:54.149Z,977.58
2018-06-12T02:50:48.543Z,977.59
2018-06-12T02:51:47.528Z,977.63
2018-06-12T02:53:42.597Z,977.64
2018-06-12T02:54:42.152Z,977.66
2018-06-12T02:56:36.377Z,977.69
2018-06-12T02:57:35.656Z,977.71
2018-06-12T02:59:29.383Z,977.74
2018-06-12T03:00:28.324Z,977.73
2018-06-12T03:02:21.733Z,977.71
2018-06-12T03:03:21.706Z,977.73
2018-06-12T03:05:15.538Z,977.75
2018-06-12T03:06:15.524Z,977.75
2018-06-12T03:08:08.198Z,977.77
2018-06-12T03:09:07.594Z,977.76
2018-06-12T03:11:01.254Z,977.80
2018-06-12T03:12:00.403Z,977.83
2018-06-12T03:13:53.800Z,977.84
2018-06-12T03:14:53.346Z,977.85
2018-06-12T03:16:46.908Z,977.90
2018-06-12T03:17:46.758Z,977.92
2018-06-12T03:19:41.110Z,977.91
2018-06-12T03:20:40.343Z,977.96
2018-06-12T03:22:34.065Z,978.05
2018-06-12T03:23:32.531Z,978.03
2018-06-12T03:25:27.058Z,978.03
2018-06-12T03:26:26.198Z,978.04
2018-06-12T03:28:22.346Z,978.03
2018-06-12T03:29:20.722Z,977.97
2018-06-12T03:31:14.665Z,977.95
2018-06-12T03:32:14.391Z,977.96
2018-06-12T03:34:07.187Z,977.91
2018-06-12T03:35:07.151Z,977.89
2018-06-12T03:37:00.215Z,977.90
2018-06-12T03:38:00.201Z,977.86
2018-06-12T03:39:54.415Z,977.90
2018-06-12T03:40:53.473Z,977.86
2018-06-12T03:42:47.451Z,977.86
2018-06-12T03:43:46.849Z,977.85
2018-06-12T03:45:41.047Z,977.91
2018-06-12T03:46:39.506Z,977.89
2018-06-12T03:48:32.992Z,977.94
2018-06-12T03:49:33.473Z,977.92
2018-06-12T03:51:26.138Z,977.94
2018-06-12T03:52:25.665Z,977.95
2018-06-12T03:54:19.137Z,978.00
2018-06-12T03:55:18.694Z,978.03
2018-06-12T03:57:12.249Z,978.05
2018-06-12T03:58:12.410Z,978.07
2018-06-12T04:00:06.763Z,978.03
2018-06-12T04:01:06.365Z,978.06
2018-06-12T04:02:59.819Z,978.01
2018-06-12T04:03:59.336Z,977.99
2018-06-12T04:05:53.384Z,978.04
2018-06-12T04:06:53.124Z,978.05
2018-06-12T04:08:46.019Z,978.05
2018-06-12T04:09:45.560Z,978.05
2018-06-12T04:11:40.569Z,978.04
2018-06-12T04:12:40.082Z,978.03
2018-06-12T04:14:34.649Z,978.04
2018-06-12T04:15:33.636Z,978.01
2018-06-12T04:17:27.068Z,978.05
2018-06-12T04:18:27.022Z,978.00
2018-06-12T04:20:20.026Z,978.02
2018-06-12T04:21:20.049Z,977.96
2018-06-12T04:23:13.134Z,977.93
2018-06-12T04:24:13.052Z,977.98
2018-06-12T04:26:08.106Z,977.91
2018-06-12T04:27:07.747Z,977.91
2018-06-12T04:29:00.768Z,977.93
2018-06-12T04:30:00.480Z,977.86
2018-06-12T04:31:54.448Z,977.90
2018-06-12T04:32:53.512Z,977.90
2018-06-12T04:34:47.681Z,977.94
2018-06-12T04:35:46.547Z,977.99
2018-06-12T04:37:40.571Z,977.98
2018-06-12T04:38:39.515Z,977.99
2018-06-12T04:40:33.473Z,978.05
2018-06-12T04:41:33.513Z,978.03
2018-06-12T04:43:28.660Z,978.04
2018-06-12T04:44:28.128Z,978.05
2018-06-12T04:46:21.945Z,978.07
2018-06-12T04:47:21.172Z,978.10
2018-06-12T04:49:14.889Z,978.12
2018-06-12T04:50:15.257Z,978.17
2018-06-12T04:52:09.418Z,978.22
2018-06-12T04:53:08.861Z,978.21
2018-06-12T04:55:02.492Z,978.21
2018-06-12T04:56:03.143Z,978.25
2018-06-12T04:57:56.031Z,978.26
2018-06-12T04:58:55.427Z,978.23
2018-06-12T05:00:49.252Z,978.24
2018-06-12T05:01:48.167Z,978.27
2018-06-12T05:03:41.639Z,978.27
2018-06-12T05:04:41.193Z,978.28
2018-06-12T05:06:34.654Z,978.30
2018-06-12T05:07:34.281Z,978.28
2018-06-12T05:09:27.774Z,978.31
2018-06-12T05:10:27.324Z,978.30
2018-06-12T05:12:21.352Z,978.33
2018-06-12T05:13:21.270Z,978.35
2018-06-12T05:14:21.166Z,978.38
2018-06-12T05:15:21.193Z,978.36
2018-06-12T05:16:20.635Z,978.39
2018-06-12T05:17:21.025Z,978.41
2018-06-12T05:18:21.094Z,978.41
2018-06-12T05:19:21.465Z,978.41
2018-06-12T05:20:21.049Z,978.41
2018-06-12T05:21:20.426Z,978.46
2018-06-12T05:22:20.098Z,978.44
2018-06-12T05:23:20.937Z,978.49
2018-06-12T05:24:20.869Z,978.52
2018-06-12T05:25:20.868Z,978.51
2018-06-12T05:26:20.805Z,978.50
2018-06-12T05:27:20.789Z,978.54
2018-06-12T05:28:20.784Z,978.54
2018-06-12T05:29:20.226Z,978.50
2018-06-12T05:30:20.124Z,978.52
2018-06-12T05:31:19.725Z,978.55
2018-06-12T05:32:20.648Z,978.56
2018-06-12T05:33:20.055Z,978.61
2018-06-12T05:34:20.562Z,978.64
2018-06-12T05:35:21.004Z,978.66
2018-06-12T05:36:21.001Z,978.64
2018-06-12T05:37:19.922Z,978.67
2018-06-12T05:38:20.393Z,978.66
2018-06-12T05:39:20.365Z,978.67
2018-06-12T05:40:19.823Z,978.65
2018-06-12T05:41:19.784Z,978.67
2018-06-12T05:42:20.504Z,978.68
2018-06-12T05:43:20.231Z,978.69
2018-06-12T05:44:19.696Z,978.72
2018-06-12T05:45:19.247Z,978.73
2018-06-12T05:46:19.642Z,978.73
2018-06-12T05:47:19.597Z,978.69
2018-06-12T05:48:19.551Z,978.68
2018-06-12T05:49:19.472Z,978.72
2018-06-12T05:50:19.513Z,978.73
2018-06-12T05:51:20.010Z,978.76
2018-06-12T05:52:19.459Z,978.80
2018-06-12T05:53:19.389Z,978.80
2018-06-12T05:54:19.901Z,978.83
2018-06-12T05:55:19.330Z,978.82
2018-06-12T05:56:18.957Z,978.86
2018-06-12T05:57:20.019Z,978.83
2018-06-12T05:58:19.256Z,978.84
2018-06-12T05:59:19.710Z,978.83
2018-06-12T06:00:19.184Z,978.85
2018-06-12T06:01:19.192Z,978.85
2018-06-12T06:02:19.602Z,978.86
2018-06-12T06:03:19.076Z,978.85
2018-06-12T06:04:19.588Z,978.82
2018-06-12T06:05:19.481Z,978.83
2018-06-12T06:06:19.524Z,978.80
2018-06-12T06:07:18.981Z,978.87
2018-06-12T06:08:19.482Z,978.86
2018-06-12T06:09:18.876Z,978.84
2018-06-12T06:10:18.870Z,978.88
2018-06-12T06:11:18.781Z,978.95
2018-06-12T06:12:18.397Z,978.94
2018-06-12T06:13:19.252Z,978.98
2018-06-12T06:14:19.254Z,978.98
2018-06-12T06:15:18.696Z,978.97
2018-06-12T06:16:19.184Z,978.98
2018-06-12T06:17:18.599Z,978.95
2018-06-12T06:18:18.608Z,978.97
2018-06-12T06:19:18.567Z,978.99
2018-06-12T06:20:19.080Z,978.97
2018-06-12T06:21:18.466Z,978.97
2018-06-12T06:22:18.999Z,978.92
2018-06-12T06:23:19.427Z,978.94
2018-06-12T06:24:18.358Z,978.94
2018-06-12T06:25:18.637Z,978.92
2018-06-12T06:26:18.331Z,978.93
2018-06-12T06:27:18.270Z,978.96
2018-06-12T06:28:18.264Z,978.96
2018-06-12T06:29:19.001Z,978.95
2018-06-12T06:30:17.861Z,978.96
2018-06-12T06:31:18.156Z,978.97
2018-06-12T06:32:18.139Z,978.97
2018-06-12T06:33:18.111Z,979.00
2018-06-12T06:34:18.064Z,979.02
2018-06-12T06:35:18.015Z,979.04
2018-06-12T06:36:18.499Z,979.08
2018-06-12T06:37:17.980Z,979.12
2018-06-12T06:38:18.392Z,979.12
2018-06-12T06:39:18.414Z,979.11
2018-06-12T06:40:17.879Z,979.10
2018-06-12T06:41:18.366Z,979.13
2018-06-12T06:42:18.288Z,979.11
2018-06-12T06:43:18.292Z,979.15
2018-06-12T06:44:17.744Z,979.14
2018-06-12T06:45:18.752Z,979.10
2018-06-12T06:46:17.234Z,979.12
2018-06-12T06:47:17.673Z,979.17
2018-06-12T06:48:17.627Z,979.16
2018-06-12T06:49:17.281Z,979.20
2018-06-12T06:50:17.147Z,979.19
2018-06-12T06:51:17.113Z,979.18
2018-06-12T06:52:17.046Z,979.17
2018-06-12T06:53:16.982Z,979.22
2018-06-12T06:54:16.961Z,979.18
2018-06-12T06:55:16.967Z,979.22
2018-06-12T06:56:16.893Z,979.20
2018-06-12T06:57:16.929Z,979.18
2018-06-12T06:58:16.810Z,979.22
2018-06-12T06:59:16.876Z,979.14
2018-06-12T07:00:16.806Z,979.11
2018-06-12T07:01:16.811Z,979.12
2018-06-12T07:02:16.685Z,979.19
2018-06-12T07:03:16.693Z,979.16
2018-06-12T07:04:16.625Z,979.16
2018-06-12T07:05:16.628Z,979.18
2018-06-12T07:06:16.597Z,979.19
2018-06-12T07:07:16.578Z,979.19
2018-06-12T07:08:16.488Z,979.20
2018-06-12T07:09:16.481Z,979.18
2018-06-12T07:10:16.435Z,979.15
2018-06-12T07:11:16.404Z,979.13
2018-06-12T07:12:16.366Z,979.13
2018-06-12T07:13:16.356Z,979.09
2018-06-12T07:14:16.371Z,979.09
2018-06-12T07:15:16.308Z,979.11
2018-06-12T07:16:16.330Z,979.12
2018-06-12T07:17:17.047Z,979.10
2018-06-12T07:18:16.199Z,979.13
2018-06-12T07:19:16.232Z,979.14
2018-06-12T07:20:16.163Z,979.11
2018-06-12T07:21:16.118Z,979.13
2018-06-12T07:22:16.068Z,979.13
2018-06-12T07:23:16.017Z,979.11
2018-06-12T07:24:15.987Z,979.13
2018-06-12T07:25:16.042Z,979.16
2018-06-12T07:26:15.916Z,979.11
2018-06-12T07:27:15.977Z,979.15
2018-06-12T07:28:15.979Z,979.16
2018-06-12T07:29:15.882Z,979.16
2018-06-12T07:30:15.788Z,979.16
2018-06-12T07:31:15.753Z,979.17
2018-06-12T07:32:15.728Z,979.13
2018-06-12T07:33:15.699Z,979.15
2018-06-12T07:34:15.639Z,979.15
2018-06-12T07:35:15.648Z,979.13
2018-06-12T07:36:15.586Z,979.16
2018-06-12T07:37:15.555Z,979.16
2018-06-12T07:38:15.537Z,979.17
2018-06-12T07:39:15.489Z,979.15
2018-06-12T07:40:15.457Z,979.18
2018-06-12T07:41:15.495Z,979.15
2018-06-12T07:42:15.428Z,979.14
2018-06-12T07:43:15.356Z,979.17
2018-06-12T07:44:15.364Z,979.15
2018-06-12T07:45:15.298Z,979.13
2018-06-12T07:46:15.252Z,979.13
2018-06-12T07:47:15.242Z,979.12
2018-06-12T07:48:15.237Z,979.15
2018-06-12T07:49:15.168Z,979.06
2018-06-12T07:50:15.143Z,979.07
2018-06-12T07:51:15.107Z,979.04
2018-06-12T07:52:15.110Z,979.06
2018-06-12T07:53:15.045Z,979.04
2018-06-12T07:54:15.031Z,979.02
2018-06-12T07:55:15.005Z,979.02
2018-06-12T07:56:14.975Z,979.01
2018-06-12T07:57:14.950Z,979.01
2018-06-12T07:58:14.927Z,979.03
2018-06-12T07:59:14.851Z,979.00
2018-06-12T08:00:14.854Z,978.99
2018-06-12T08:01:14.798Z,979.01
2018-06-12T08:02:14.759Z,979.00
2018-06-12T08:03:14.721Z,979.02
2018-06-12T08:04:14.713Z,979.04
2018-06-12T08:05:14.668Z,979.01
2018-06-12T08:06:14.632Z,979.05
2018-06-12T08:07:14.600Z,979.03
2018-06-12T08:08:14.586Z,979.03
2018-06-12T08:09:14.578Z,979.05
2018-06-12T08:10:14.516Z,979.06
2018-06-12T08:11:14.499Z,979.06
2018-06-12T08:12:14.483Z,979.11
2018-06-12T08:13:14.434Z,979.10
2018-06-12T08:14:14.392Z,979.09
2018-06-12T08:15:14.395Z,979.12
2018-06-12T08:16:14.322Z,979.12
2018-06-12T08:17:14.301Z,979.09
2018-06-12T08:18:14.259Z,979.07
2018-06-12T08:19:14.235Z,979.06
2018-06-12T08:20:14.229Z,979.08
2018-06-12T08:21:14.163Z,979.10
2018-06-12T08:22:14.131Z,979.11
2018-06-12T08:23:14.109Z,979.11
2018-06-12T08:24:14.174Z,979.13
2018-06-12T08:25:14.081Z,979.11
2018-06-12T08:26:14.087Z,979.13
2018-06-12T08:27:13.982Z,979.18
2018-06-12T08:28:13.955Z,979.14
2018-06-12T08:29:13.942Z,979.18
2018-06-12T08:30:13.921Z,979.20
2018-06-12T08:31:13.854Z,979.19
2018-06-12T08:32:13.832Z,979.20
2018-06-12T08:33:13.798Z,979.23
2018-06-12T08:34:13.770Z,979.22
2018-06-12T08:35:13.748Z,979.17
2018-06-12T08:36:13.704Z,979.18
2018-06-12T08:37:13.680Z,979.23
2018-06-12T08:38:13.627Z,979.22
2018-06-12T08:39:13.603Z,979.26
2018-06-12T08:40:13.629Z,979.25
2018-06-12T08:41:13.545Z,979.29
2018-06-12T08:42:13.528Z,979.31
2018-06-12T08:43:13.531Z,979.27
2018-06-12T08:44:13.444Z,979.28
2018-06-12T08:45:13.422Z,979.28
2018-06-12T08:46:13.403Z,979.22
2018-06-12T08:47:13.355Z,979.25
2018-06-12T08:48:15.174Z,979.21
2018-06-12T08:49:13.297Z,979.23
2018-06-12T08:50:13.271Z,979.22
2018-06-12T08:51:13.273Z,979.20
2018-06-12T08:52:13.197Z,979.25
2018-06-12T08:53:13.172Z,979.23
2018-06-12T08:54:13.136Z,979.29
2018-06-12T08:55:13.107Z,979.28
2018-06-12T08:56:13.075Z,979.26
2018-06-12T08:57:13.086Z,979.27
2018-06-12T08:58:13.011Z,979.27
2018-06-12T08:59:12.968Z,979.27
2018-06-12T09:00:12.937Z,979.31
2018-06-12T09:01:12.908Z,979.31
2018-06-12T09:02:12.889Z,979.30
2018-06-12T09:03:12.850Z,979.27
2018-06-12T09:04:12.808Z,979.30
2018-06-12T09:05:12.805Z,979.33
2018-06-12T09:06:12.744Z,979.34
2018-06-12T09:07:12.729Z,979.36
2018-06-12T09:08:12.723Z,979.36
2018-06-12T09:09:12.669Z,979.37
2018-06-12T09:10:12.629Z,979.35
2018-06-12T09:11:12.616Z,979.36
2018-06-12T09:12:12.568Z,979.34
2018-06-12T09:13:12.519Z,979.33
2018-06-12T09:14:12.496Z,979.35
2018-06-12T09:15:12.502Z,979.33
2018-06-12T09:16:12.441Z,979.36
2018-06-12T09:17:12.404Z,979.35
2018-06-12T09:18:12.375Z,979.32
2018-06-12T09:19:12.343Z,979.31
2018-06-12T09:20:12.327Z,979.33
2018-06-12T09:21:12.272Z,979.29
2018-06-12T09:22:12.256Z,979.28
2018-06-12T09:23:12.252Z,979.31
2018-06-12T09:24:12.182Z,979.25
2018-06-12T09:25:12.197Z,979.27
2018-06-12T09:26:12.116Z,979.29
2018-06-12T09:27:12.097Z,979.29
2018-06-12T09:28:12.078Z,979.33
2018-06-12T09:29:12.021Z,979.30
2018-06-12T09:30:12.010Z,979.29
2018-06-12T09:31:11.982Z,979.33
2018-06-12T09:32:11.985Z,979.29
2018-06-12T09:33:11.899Z,979.31
2018-06-12T09:34:11.872Z,979.31
2018-06-12T09:35:11.853Z,979.35
2018-06-12T09:36:11.820Z,979.33
2018-06-12T09:37:11.779Z,979.27
2018-06-12T09:38:11.756Z,979.29
2018-06-12T09:39:11.725Z,979.29
2018-06-12T09:40:11.687Z,979.28
2018-06-12T09:41:11.685Z,979.24
2018-06-12T09:42:11.683Z,979.22
2018-06-12T09:43:11.716Z,979.25
2018-06-12T09:44:11.568Z,979.25
2018-06-12T09:45:11.544Z,979.28
2018-06-12T09:46:11.557Z,979.29
2018-06-12T09:47:11.483Z,979.28
2018-06-12T09:48:11.454Z,979.31
2018-06-12T09:49:11.434Z,979.27
2018-06-12T09:50:11.395Z,979.26
2018-06-12T09:51:11.360Z,979.30
2018-06-12T09:52:11.325Z,979.30
2018-06-12T09:53:11.321Z,979.29
2018-06-12T09:54:11.288Z,979.28
2018-06-12T09:55:11.276Z,979.29
2018-06-12T09:56:11.227Z,979.35
2018-06-12T09:57:11.244Z,979.35
2018-06-12T09:58:11.159Z,979.40
2018-06-12T09:59:11.139Z,979.34
2018-06-12T10:00:11.161Z,979.34
2018-06-12T10:01:11.071Z,979.38
2018-06-12T10:02:11.073Z,979.36
2018-06-12T10:03:11.013Z,979.35
2018-06-12T10:04:11.021Z,979.34
2018-06-12T10:05:10.961Z,979.37
2018-06-12T10:06:10.929Z,979.36
2018-06-12T10:07:10.897Z,979.37
2018-06-12T10:08:10.895Z,979.37
2018-06-12T10:09:10.868Z,979.38
2018-06-12T10:10:10.861Z,979.36
2018-06-12T10:11:10.818Z,979.34
2018-06-12T10:12:10.785Z,979.35
2018-06-12T10:13:10.749Z,979.40
2018-06-12T10:14:10.712Z,979.35
2018-06-12T10:15:10.702Z,979.34
2018-06-12T10:16:10.638Z,979.35
2018-06-12T10:17:10.640Z,979.34
2018-06-12T10:18:10.606Z,979.33
2018-06-12T10:19:10.587Z,979.34
2018-06-12T10:20:10.561Z,979.31
2018-06-12T10:21:10.507Z,979.33
2018-06-12T10:22:10.501Z,979.32
2018-06-12T10:23:10.505Z,979.30
2018-06-12T10:24:10.457Z,979.32
2018-06-12T10:25:10.411Z,979.32
2018-06-12T10:26:10.406Z,979.25
2018-06-12T10:27:10.372Z,979.27
2018-06-12T10:28:10.331Z,979.28
2018-06-12T10:29:10.303Z,979.27
2018-06-12T10:30:10.284Z,979.25
2018-06-12T10:31:10.288Z,979.30
2018-06-12T10:32:10.223Z,979.29
2018-06-12T10:33:10.180Z,979.30
2018-06-12T10:34:10.182Z,979.29
2018-06-12T10:35:10.151Z,979.26
2018-06-12T10:36:10.119Z,979.28
2018-06-12T10:37:10.181Z,979.29
2018-06-12T10:38:10.063Z,979.24
2018-06-12T10:39:10.053Z,979.22
2018-06-12T10:40:10.019Z,979.22
2018-06-12T10:41:09.969Z,979.29
2018-06-12T10:42:09.937Z,979.26
2018-06-12T10:43:09.931Z,979.23
2018-06-12T10:44:09.885Z,979.23
2018-06-12T10:45:09.871Z,979.21
2018-06-12T10:46:09.843Z,979.23
2018-06-12T10:47:09.827Z,979.21
2018-06-12T10:48:09.785Z,979.20
2018-06-12T10:49:09.745Z,979.23
2018-06-12T10:50:09.740Z,979.20
2018-06-12T10:51:09.716Z,979.20
2018-06-12T10:52:09.684Z,979.17
2018-06-12T10:53:09.649Z,979.19
2018-06-12T10:54:09.622Z,979.18
2018-06-12T10:55:09.653Z,979.20
2018-06-12T10:56:09.578Z,979.21
2018-06-12T10:57:09.578Z,979.19
2018-06-12T10:58:09.499Z,979.20
2018-06-12T10:59:09.503Z,979.13
2018-06-12T11:00:09.444Z,979.16
2018-06-12T11:01:09.432Z,979.13
2018-06-12T11:02:09.447Z,979.11
2018-06-12T11:03:09.384Z,979.10
2018-06-12T11:04:09.341Z,979.08
2018-06-12T11:05:09.319Z,979.11
2018-06-12T11:06:09.280Z,979.12
2018-06-12T11:07:09.284Z,979.12
2018-06-12T11:08:09.290Z,979.12
2018-06-12T11:09:09.272Z,979.11
2018-06-12T11:10:09.226Z,979.09
2018-06-12T11:11:09.187Z,979.07
2018-06-12T11:12:09.134Z,979.09
2018-06-12T11:13:09.134Z,979.11
2018-06-12T11:14:09.084Z,979.14
2018-06-12T11:15:09.072Z,979.17
2018-06-12T11:16:09.062Z,979.17
2018-06-12T11:17:09.634Z,979.17
2018-06-12T11:18:08.974Z,979.14
2018-06-12T11:19:08.959Z,979.10
2018-06-12T11:20:08.966Z,979.10
2018-06-12T11:21:08.898Z,979.09
2018-06-12T11:22:08.864Z,979.09
2018-06-12T11:23:08.857Z,979.08
2018-06-12T11:24:08.812Z,979.07
2018-06-12T11:25:08.792Z,979.08
2018-06-12T11:26:08.764Z,979.04
2018-06-12T11:27:08.758Z,979.02
2018-06-12T11:28:08.707Z,979.04
2018-06-12T11:29:08.672Z,979.03
2018-06-12T11:30:08.662Z,978.99
2018-06-12T11:31:08.635Z,979.02
2018-06-12T11:32:08.607Z,979.00
2018-06-12T11:33:08.651Z,978.97
2018-06-12T11:34:08.594Z,978.98
2018-06-12T11:35:08.576Z,979.01
2018-06-12T11:36:08.523Z,978.95
2018-06-12T11:37:08.488Z,978.96
2018-06-12T11:38:08.471Z,978.96
2018-06-12T11:39:08.444Z,978.99
2018-06-12T11:40:08.538Z,978.93
2018-06-12T11:41:10.242Z,978.92
2018-06-12T11:42:08.367Z,978.91
2018-06-12T11:43:08.339Z,978.91
2018-06-12T11:44:08.307Z,978.88
2018-06-12T11:45:09.153Z,978.85
2018-06-12T11:46:08.289Z,978.86
2018-06-12T11:47:08.300Z,978.87
2018-06-12T11:48:08.203Z,978.84
2018-06-12T11:49:08.227Z,978.82
2018-06-12T11:50:08.177Z,978.87
2018-06-12T11:51:08.160Z,978.91
2018-06-12T11:52:08.118Z,978.90
2018-06-12T11:53:08.103Z,978.84
2018-06-12T11:54:08.101Z,978.87
2018-06-12T11:55:08.074Z,978.86
2018-06-12T11:56:08.019Z,978.84
2018-06-12T11:57:08.004Z,978.86
2018-06-12T11:58:07.979Z,978.84
2018-06-12T11:59:07.954Z,978.85
2018-06-12T12:00:07.964Z,978.85
2018-06-12T12:01:07.935Z,978.84
2018-06-12T12:02:07.871Z,978.82
2018-06-12T12:03:07.859Z,978.80
2018-06-12T12:04:07.828Z,978.78
2018-06-12T12:05:07.819Z,978.78
2018-06-12T12:06:07.787Z,978.75
2018-06-12T12:07:07.760Z,978.69
2018-06-12T12:08:07.753Z,978.67
2018-06-12T12:09:07.728Z,978.65
2018-06-12T12:10:07.690Z,978.66
2018-06-12T12:11:07.650Z,978.64
2018-06-12T12:12:07.648Z,978.59
2018-06-12T12:13:07.619Z,978.61
2018-06-12T12:14:07.610Z,978.59
2018-06-12T12:15:07.623Z,978.63
2018-06-12T12:16:07.533Z,978.59
2018-06-12T12:17:07.534Z,978.57
2018-06-12T12:18:07.502Z,978.60
2018-06-12T12:19:07.517Z,978.59
2018-06-12T12:20:07.434Z,978.60
2018-06-12T12:21:07.411Z,978.58
2018-06-12T12:22:07.392Z,978.59
2018-06-12T12:23:07.393Z,978.56
2018-06-12T12:24:07.340Z,978.55
2018-06-12T12:25:07.351Z,978.53
2018-06-12T12:26:07.403Z,978.51
2018-06-12T12:27:07.307Z,978.50
2018-06-12T12:28:07.245Z,978.51
2018-06-12T12:29:07.222Z,978.49
2018-06-12T12:30:07.297Z,978.45
2018-06-12T12:31:07.198Z,978.47
2018-06-12T12:32:07.142Z,978.45
2018-06-12T12:33:07.177Z,978.48
2018-06-12T12:34:07.120Z,978.45
2018-06-12T12:35:07.117Z,978.45
2018-06-12T12:36:07.049Z,978.49
2018-06-12T12:37:07.051Z,978.47
2018-06-12T12:38:07.014Z,978.46
2018-06-12T12:39:06.988Z,978.45
2018-06-12T12:40:06.968Z,978.51
2018-06-12T12:41:06.950Z,978.47
2018-06-12T12:42:06.911Z,978.44
2018-06-12T12:43:06.952Z,978.41
2018-06-12T12:44:06.864Z,978.43
2018-06-12T12:45:06.863Z,978.46
2018-06-12T12:46:06.814Z,978.48
2018-06-12T12:47:07.674Z,978.49
2018-06-12T12:48:06.790Z,978.50
2018-06-12T12:49:06.770Z,978.43
2018-06-12T12:50:06.739Z,978.45
2018-06-12T12:51:06.735Z,978.47
2018-06-12T12:52:06.676Z,978.46
2018-06-12T12:53:06.747Z,978.47
2018-06-12T12:54:06.641Z,978.46
2018-06-12T12:55:06.630Z,978.44
2018-06-12T12:56:06.600Z,978.46
2018-06-12T12:57:06.605Z,978.48
2018-06-12T12:58:06.572Z,978.45
2018-06-12T12:59:06.519Z,978.41
2018-06-12T13:00:06.525Z,978.44
2018-06-12T13:01:06.492Z,978.41
2018-06-12T13:02:06.457Z,978.41
2018-06-12T13:03:06.463Z,978.43
2018-06-12T13:04:06.397Z,978.45
2018-06-12T13:05:06.363Z,978.41
2018-06-12T13:06:06.384Z,978.39
2018-06-12T13:07:06.332Z,978.40
2018-06-12T13:08:06.362Z,978.39
2018-06-12T13:09:06.381Z,978.37
2018-06-12T13:10:06.269Z,978.39
2018-06-12T13:11:06.229Z,978.36
2018-06-12T13:12:06.220Z,978.39
2018-06-12T13:13:06.183Z,978.41
2018-06-12T13:14:06.236Z,978.37
2018-06-12T13:15:06.172Z,978.35
2018-06-12T13:16:06.105Z,978.36
2018-06-12T13:17:06.155Z,978.31
2018-06-12T13:18:06.062Z,978.37
2018-06-12T13:19:06.034Z,978.37
2018-06-12T13:20:06.048Z,978.40
2018-06-12T13:21:05.987Z,978.38
2018-06-12T13:22:05.964Z,978.39
2018-06-12T13:23:05.973Z,978.36
2018-06-12T13:24:05.907Z,978.38
2018-06-12T13:25:05.896Z,978.40
2018-06-12T13:26:05.876Z,978.36
2018-06-12T13:27:05.853Z,978.35
2018-06-12T13:28:05.824Z,978.36
2018-06-12T13:29:05.801Z,978.33
2018-06-12T13:30:05.791Z,978.34
2018-06-12T13:31:05.774Z,978.35
2018-06-12T13:32:05.730Z,978.36
2018-06-12T13:33:05.718Z,978.32
2018-06-12T13:34:05.676Z,978.32
2018-06-12T13:35:05.652Z,978.34
2018-06-12T13:36:05.631Z,978.34
2018-06-12T13:37:05.603Z,978.34
2018-06-12T13:38:05.564Z,978.33
2018-06-12T13:39:05.590Z,978.31
2018-06-12T13:40:05.517Z,978.31
2018-06-12T13:41:05.509Z,978.29
2018-06-12T13:42:05.494Z,978.26
2018-06-12T13:43:05.506Z,978.28
2018-06-12T13:44:05.450Z,978.22
2018-06-12T13:45:05.392Z,978.20
2018-06-12T13:46:05.390Z,978.24
2018-06-12T13:47:05.358Z,978.20
2018-06-12T13:48:05.322Z,978.22
2018-06-12T13:49:05.309Z,978.20
2018-06-12T13:50:05.276Z,978.20
2018-06-12T13:51:05.247Z,978.20
2018-06-12T13:52:05.248Z,978.18
2018-06-12T13:53:05.207Z,978.17